createdAt,value
2019-03-09T00:00:46.020Z,24.72
2019-03-09T00:01:50.408Z,22.48
2019-03-09T00:02:54.532Z,21.27
2019-03-09T00:03:58.590Z,20.72
2019-03-09T00:05:02.717Z,18.15
2019-03-09T00:06:06.998Z,19.48
2019-03-09T00:07:11.285Z,24.27
2019-03-09T00:08:15.359Z,19.48
2019-03-09T00:09:19.541Z,17.77
2019-03-09T00:10:23.627Z,19.52
2019-03-09T00:11:27.726Z,18.57
2019-03-09T00:12:31.826Z,19.60
2019-03-09T00:13:35.978Z,20.20
2019-03-09T00:14:40.112Z,21.95
2019-03-09T00:15:44.185Z,19.77
2019-03-09T00:16:48.289Z,18.05
2019-03-09T00:17:52.360Z,20.02
2019-03-09T00:18:56.545Z,17.92
2019-03-09T00:20:00.625Z,19.48
2019-03-09T00:21:04.855Z,16.05
2019-03-09T00:22:08.943Z,16.07
2019-03-09T00:23:17.435Z,18.20
2019-03-09T00:24:41.218Z,20.00
2019-03-09T00:26:03.322Z,18.27
2019-03-09T00:27:17.613Z,18.00
2019-03-09T00:28:23.387Z,19.75
2019-03-09T00:29:37.657Z,19.40
2019-03-09T00:30:43.516Z,21.12
2019-03-09T00:31:49.297Z,19.27
2019-03-09T00:32:53.391Z,18.87
2019-03-09T00:33:57.453Z,18.10
2019-03-09T00:35:01.590Z,22.27
2019-03-09T00:36:05.797Z,18.85
2019-03-09T00:37:11.434Z,21.40
2019-03-09T00:38:15.519Z,19.00
2019-03-09T00:39:19.655Z,17.37
2019-03-09T00:40:25.293Z,18.85
2019-03-09T00:41:29.558Z,21.05
2019-03-09T00:42:33.694Z,20.95
2019-03-09T00:43:37.805Z,20.55
2019-03-09T00:44:41.873Z,16.27
2019-03-09T00:45:46.062Z,17.48
2019-03-09T00:46:50.345Z,19.17
2019-03-09T00:47:54.429Z,23.80
2019-03-09T00:48:58.552Z,21.35
2019-03-09T00:50:02.812Z,21.00
2019-03-09T00:51:06.963Z,19.35
2019-03-09T00:52:11.103Z,20.68
2019-03-09T00:53:15.299Z,22.90
2019-03-09T00:54:19.467Z,18.62
2019-03-09T00:55:24.196Z,22.65
2019-03-09T00:56:28.373Z,22.22
2019-03-09T00:57:32.424Z,20.82
2019-03-09T00:58:36.549Z,18.85
2019-03-09T00:59:40.621Z,16.52
2019-03-09T01:00:44.773Z,19.85
2019-03-09T01:01:48.988Z,18.35
2019-03-09T01:02:53.144Z,20.17
2019-03-09T01:03:57.367Z,19.75
2019-03-09T01:05:01.495Z,23.50
2019-03-09T01:06:05.736Z,17.45
2019-03-09T01:07:09.800Z,19.60
2019-03-09T01:08:16.686Z,16.23
2019-03-09T01:09:24.048Z,19.02
2019-03-09T01:10:29.689Z,19.45
2019-03-09T01:11:35.595Z,16.27
2019-03-09T01:12:43.542Z,21.35
2019-03-09T01:13:49.351Z,19.75
2019-03-09T01:14:55.008Z,19.82
2019-03-09T01:15:59.130Z,23.60
2019-03-09T01:17:03.304Z,16.30
2019-03-09T01:18:07.877Z,20.82
2019-03-09T01:19:13.650Z,17.07
2019-03-09T01:20:18.018Z,20.23
2019-03-09T01:21:22.269Z,19.40
2019-03-09T01:22:26.573Z,18.90
2019-03-09T01:23:30.799Z,17.75
2019-03-09T01:24:34.879Z,16.67
2019-03-09T01:25:39.021Z,18.67
2019-03-09T01:26:43.185Z,18.45
2019-03-09T01:27:47.404Z,16.02
2019-03-09T01:28:51.503Z,21.33
2019-03-09T01:29:55.656Z,23.92
2019-03-09T01:31:00.798Z,19.65
2019-03-09T01:32:05.010Z,20.50
2019-03-09T01:33:09.155Z,18.55
2019-03-09T01:34:13.273Z,22.77
2019-03-09T01:35:17.523Z,18.15
2019-03-09T01:36:21.784Z,22.20
2019-03-09T01:37:25.887Z,19.57
2019-03-09T01:38:29.960Z,22.10
2019-03-09T01:39:34.075Z,21.27
2019-03-09T01:40:38.174Z,20.10
2019-03-09T01:41:42.311Z,18.62
2019-03-09T01:42:46.448Z,21.17
2019-03-09T01:43:50.600Z,24.57
2019-03-09T01:44:54.791Z,23.30
2019-03-09T01:45:58.984Z,24.00
2019-03-09T01:47:03.065Z,21.10
2019-03-09T01:48:07.340Z,21.73
2019-03-09T01:49:11.961Z,21.73
2019-03-09T01:50:16.026Z,21.02
2019-03-09T01:51:20.138Z,25.10
2019-03-09T01:52:24.236Z,21.30
2019-03-09T01:53:36.449Z,20.75
2019-03-09T01:54:35.702Z,19.70
2019-03-09T01:55:39.898Z,23.42
2019-03-09T01:56:43.971Z,24.10
2019-03-09T01:57:48.042Z,18.17
2019-03-09T01:58:52.268Z,21.77
2019-03-09T01:59:57.809Z,27.13
2019-03-09T02:01:01.945Z,19.62
2019-03-09T02:02:06.234Z,22.62
2019-03-09T02:03:11.470Z,22.02
2019-03-09T02:04:15.541Z,21.65
2019-03-09T02:05:19.691Z,22.60
2019-03-09T02:06:23.974Z,23.47
2019-03-09T02:07:28.288Z,23.05
2019-03-09T02:08:32.438Z,24.25
2019-03-09T02:09:36.786Z,21.45
2019-03-09T02:10:40.925Z,22.80
2019-03-09T02:11:45.244Z,20.65
2019-03-09T02:12:49.403Z,19.90
2019-03-09T02:13:53.566Z,22.98
2019-03-09T02:14:57.821Z,20.80
2019-03-09T02:16:01.967Z,26.15
2019-03-09T02:17:06.186Z,45.88
2019-03-09T02:18:14.836Z,32.88
2019-03-09T02:19:18.944Z,31.57
2019-03-09T02:20:23.084Z,27.15
2019-03-09T02:21:27.216Z,26.70
2019-03-09T02:22:31.398Z,33.30
2019-03-09T02:23:35.611Z,28.60
2019-03-09T02:24:39.698Z,40.67
2019-03-09T02:25:43.820Z,60.60
2019-03-09T02:26:47.921Z,96.95
2019-03-09T02:27:52.083Z,99.32
2019-03-09T02:28:56.208Z,58.17
2019-03-09T02:30:01.410Z,48.33
2019-03-09T02:31:05.546Z,55.17
2019-03-09T02:32:09.686Z,79.45
2019-03-09T02:33:13.829Z,75.55
2019-03-09T02:34:18.018Z,123.92
2019-03-09T02:35:22.104Z,132.27
2019-03-09T02:36:26.174Z,107.52
2019-03-09T02:37:30.293Z,59.50
2019-03-09T02:38:35.987Z,39.67
2019-03-09T02:39:41.869Z,32.53
2019-03-09T02:40:46.033Z,27.30
2019-03-09T02:41:50.221Z,29.85
2019-03-09T02:42:54.387Z,23.00
2019-03-09T02:43:58.487Z,18.52
2019-03-09T02:45:02.813Z,20.72
2019-03-09T02:46:06.945Z,20.88
2019-03-09T02:47:14.852Z,19.70
2019-03-09T02:48:20.374Z,20.45
2019-03-09T02:49:24.431Z,16.40
2019-03-09T02:50:28.553Z,18.77
2019-03-09T02:51:32.634Z,21.82
2019-03-09T02:52:36.875Z,19.98
2019-03-09T02:53:40.960Z,20.50
2019-03-09T02:54:45.108Z,20.27
2019-03-09T02:55:49.256Z,18.20
2019-03-09T02:56:53.354Z,19.35
2019-03-09T02:57:57.484Z,18.90
2019-03-09T02:59:01.592Z,16.62
2019-03-09T03:00:08.754Z,20.62
2019-03-09T03:01:20.433Z,20.08
2019-03-09T03:02:26.152Z,23.40
2019-03-09T03:03:30.309Z,24.18
2019-03-09T03:04:34.489Z,21.23
2019-03-09T03:05:38.609Z,20.92
2019-03-09T03:06:42.698Z,19.77
2019-03-09T03:07:46.839Z,20.77
2019-03-09T03:08:50.940Z,18.65
2019-03-09T03:09:55.122Z,22.48
2019-03-09T03:10:59.311Z,17.37
2019-03-09T03:12:03.462Z,18.40
2019-03-09T03:13:07.590Z,20.72
2019-03-09T03:14:11.720Z,20.85
2019-03-09T03:15:27.294Z,17.60
2019-03-09T03:16:32.996Z,23.45
2019-03-09T03:17:39.973Z,20.57
2019-03-09T03:18:44.224Z,20.90
2019-03-09T03:19:48.372Z,17.60
2019-03-09T03:20:52.463Z,18.35
2019-03-09T03:21:56.625Z,20.00
2019-03-09T03:23:00.783Z,21.60
2019-03-09T03:24:04.940Z,18.42
2019-03-09T03:25:09.287Z,22.95
2019-03-09T03:26:13.421Z,16.60
2019-03-09T03:27:17.586Z,20.30
2019-03-09T03:28:21.729Z,18.50
2019-03-09T03:29:25.837Z,19.45
2019-03-09T03:30:29.973Z,17.67
2019-03-09T03:31:34.185Z,19.82
2019-03-09T03:32:38.207Z,19.70
2019-03-09T03:33:42.408Z,18.25
2019-03-09T03:34:47.479Z,22.42
2019-03-09T03:35:51.545Z,19.65
2019-03-09T03:36:55.767Z,15.10
2019-03-09T03:37:59.846Z,18.15
2019-03-09T03:39:05.515Z,21.57
2019-03-09T03:40:10.615Z,19.15
2019-03-09T03:41:14.940Z,18.80
2019-03-09T03:42:19.023Z,20.25
2019-03-09T03:43:23.088Z,19.40
2019-03-09T03:44:27.303Z,18.98
2019-03-09T03:45:31.432Z,19.50
2019-03-09T03:46:35.987Z,18.10
2019-03-09T03:47:40.052Z,18.85
2019-03-09T03:48:45.855Z,18.07
2019-03-09T03:49:49.930Z,18.30
2019-03-09T03:50:54.105Z,21.95
2019-03-09T03:51:58.226Z,16.10
2019-03-09T03:53:02.560Z,20.68
2019-03-09T03:54:06.842Z,19.60
2019-03-09T03:55:11.146Z,19.40
2019-03-09T03:56:15.293Z,20.37
2019-03-09T03:57:19.520Z,18.45
2019-03-09T03:58:23.802Z,23.20
2019-03-09T03:59:28.076Z,15.43
2019-03-09T04:00:32.215Z,19.02
2019-03-09T04:01:36.460Z,16.77
2019-03-09T04:02:40.658Z,20.45
2019-03-09T04:03:44.799Z,16.40
2019-03-09T04:04:49.007Z,19.95
2019-03-09T04:05:53.216Z,17.23
2019-03-09T04:06:57.521Z,18.17
2019-03-09T04:08:01.683Z,17.48
2019-03-09T04:09:06.583Z,21.10
2019-03-09T04:10:14.650Z,23.85
2019-03-09T04:11:18.931Z,19.32
2019-03-09T04:12:23.081Z,21.07
2019-03-09T04:13:27.171Z,18.23
2019-03-09T04:14:31.479Z,19.35
2019-03-09T04:15:35.700Z,17.98
2019-03-09T04:16:39.772Z,20.95
2019-03-09T04:17:43.831Z,18.12
2019-03-09T04:18:47.930Z,15.80
2019-03-09T04:19:52.119Z,19.45
2019-03-09T04:20:56.407Z,16.25
2019-03-09T04:22:00.467Z,20.27
2019-03-09T04:23:04.602Z,18.85
2019-03-09T04:24:08.741Z,21.40
2019-03-09T04:25:13.047Z,23.70
2019-03-09T04:26:17.220Z,19.32
2019-03-09T04:27:21.281Z,17.45
2019-03-09T04:28:28.048Z,23.05
2019-03-09T04:29:32.181Z,18.40
2019-03-09T04:30:36.343Z,21.97
2019-03-09T04:31:40.476Z,16.60
2019-03-09T04:32:44.633Z,23.25
2019-03-09T04:33:48.769Z,18.67
2019-03-09T04:34:52.911Z,17.95
2019-03-09T04:35:58.547Z,19.25
2019-03-09T04:37:02.805Z,19.52
2019-03-09T04:38:07.497Z,19.60
2019-03-09T04:39:11.614Z,20.12
2019-03-09T04:40:15.987Z,22.82
2019-03-09T04:41:20.217Z,17.92
2019-03-09T04:42:24.271Z,23.10
2019-03-09T04:43:28.429Z,18.60
2019-03-09T04:44:32.493Z,20.65
2019-03-09T04:45:36.736Z,18.00
2019-03-09T04:46:40.853Z,16.90
2019-03-09T04:47:45.023Z,21.23
2019-03-09T04:48:49.248Z,17.02
2019-03-09T04:49:53.333Z,20.40
2019-03-09T04:50:58.714Z,20.32
2019-03-09T04:52:02.884Z,20.75
2019-03-09T04:53:07.066Z,19.95
2019-03-09T04:54:11.179Z,17.90
2019-03-09T04:55:15.306Z,20.48
2019-03-09T04:56:19.433Z,17.25
2019-03-09T04:57:23.509Z,21.87
2019-03-09T04:58:27.592Z,24.77
2019-03-09T04:59:31.792Z,20.90
2019-03-09T05:00:35.868Z,21.37
2019-03-09T05:01:40.023Z,19.37
2019-03-09T05:02:44.175Z,20.12
2019-03-09T05:03:51.347Z,18.10
2019-03-09T05:04:55.477Z,20.12
2019-03-09T05:05:59.607Z,18.75
2019-03-09T05:07:03.689Z,21.70
2019-03-09T05:08:10.863Z,19.30
2019-03-09T05:09:23.708Z,19.12
2019-03-09T05:10:36.829Z,19.12
2019-03-09T05:11:41.021Z,18.20
2019-03-09T05:12:48.184Z,17.98
2019-03-09T05:13:53.899Z,18.82
2019-03-09T05:14:58.117Z,21.30
2019-03-09T05:16:02.366Z,18.05
2019-03-09T05:17:06.500Z,19.07
2019-03-09T05:18:10.627Z,24.52
2019-03-09T05:19:14.706Z,19.27
2019-03-09T05:20:18.834Z,18.92
2019-03-09T05:21:22.887Z,22.60
2019-03-09T05:22:28.274Z,19.40
2019-03-09T05:23:32.480Z,22.48
2019-03-09T05:24:36.647Z,21.00
2019-03-09T05:25:40.735Z,18.75
2019-03-09T05:26:49.869Z,18.17
2019-03-09T05:27:54.005Z,20.12
2019-03-09T05:28:59.264Z,19.98
2019-03-09T05:30:04.493Z,16.60
2019-03-09T05:31:08.743Z,20.75
2019-03-09T05:32:15.916Z,18.73
2019-03-09T05:33:20.083Z,18.77
2019-03-09T05:34:24.158Z,20.82
2019-03-09T05:35:28.223Z,21.87
2019-03-09T05:36:32.444Z,26.33
2019-03-09T05:37:43.188Z,21.35
2019-03-09T05:38:43.029Z,20.12
2019-03-09T05:39:48.769Z,25.52
2019-03-09T05:40:52.871Z,20.02
2019-03-09T05:41:56.953Z,21.75
2019-03-09T05:43:01.133Z,23.50
2019-03-09T05:44:05.296Z,21.85
2019-03-09T05:45:09.590Z,23.73
2019-03-09T05:46:14.560Z,22.80
2019-03-09T05:47:18.729Z,22.65
2019-03-09T05:48:22.849Z,25.02
2019-03-09T05:49:27.018Z,20.80
2019-03-09T05:50:31.256Z,20.88
2019-03-09T05:51:35.367Z,23.87
2019-03-09T05:52:41.314Z,20.92
2019-03-09T05:53:45.130Z,24.45
2019-03-09T05:54:49.407Z,28.20
2019-03-09T05:55:54.457Z,22.27
2019-03-09T05:56:58.598Z,22.98
2019-03-09T05:58:02.679Z,23.47
2019-03-09T05:59:06.739Z,24.10
2019-03-09T06:00:14.213Z,20.55
2019-03-09T06:01:21.538Z,25.77
2019-03-09T06:02:26.624Z,23.15
2019-03-09T06:03:30.747Z,26.70
2019-03-09T06:04:34.815Z,24.40
2019-03-09T06:05:43.876Z,25.02
2019-03-09T06:06:48.281Z,24.82
2019-03-09T06:07:52.579Z,21.95
2019-03-09T06:08:56.735Z,26.55
2019-03-09T06:10:01.019Z,27.22
2019-03-09T06:11:05.338Z,27.98
2019-03-09T06:12:09.601Z,25.30
2019-03-09T06:13:13.754Z,23.45
2019-03-09T06:14:17.933Z,23.30
2019-03-09T06:15:22.010Z,22.20
2019-03-09T06:16:26.069Z,29.02
2019-03-09T06:17:30.874Z,26.57
2019-03-09T06:18:34.999Z,26.57
2019-03-09T06:19:39.239Z,24.60
2019-03-09T06:20:43.516Z,23.80
2019-03-09T06:21:47.657Z,22.85
2019-03-09T06:22:51.829Z,21.42
2019-03-09T06:23:55.980Z,22.40
2019-03-09T06:25:00.064Z,25.27
2019-03-09T06:26:04.342Z,26.80
2019-03-09T06:27:09.966Z,24.20
2019-03-09T06:28:14.173Z,22.48
2019-03-09T06:29:19.985Z,23.10
2019-03-09T06:30:25.629Z,21.75
2019-03-09T06:31:29.645Z,22.60
2019-03-09T06:32:37.139Z,22.85
2019-03-09T06:33:41.483Z,20.92
2019-03-09T06:34:46.163Z,22.62
2019-03-09T06:35:57.295Z,24.15
2019-03-09T06:37:07.395Z,20.43
2019-03-09T06:38:24.837Z,18.62
2019-03-09T06:39:29.166Z,25.15
2019-03-09T06:40:34.945Z,20.65
2019-03-09T06:41:45.077Z,24.35
2019-03-09T06:42:49.674Z,23.73
2019-03-09T06:43:55.336Z,20.15
2019-03-09T06:44:59.481Z,26.57
2019-03-09T06:46:05.224Z,23.52
2019-03-09T06:47:10.975Z,22.13
2019-03-09T06:48:16.562Z,22.75
2019-03-09T06:49:20.661Z,22.67
2019-03-09T06:50:26.255Z,22.10
2019-03-09T06:51:35.423Z,20.62
2019-03-09T06:52:39.540Z,24.35
2019-03-09T06:53:45.153Z,21.20
2019-03-09T06:54:49.222Z,25.65
2019-03-09T06:55:57.315Z,21.65
2019-03-09T06:57:02.713Z,26.48
2019-03-09T06:58:06.813Z,27.82
2019-03-09T06:59:10.896Z,28.83
2019-03-09T07:00:32.681Z,27.22
2019-03-09T07:01:36.976Z,25.37
2019-03-09T07:02:44.973Z,21.42
2019-03-09T07:03:51.135Z,21.77
2019-03-09T07:04:55.735Z,21.82
2019-03-09T07:06:00.048Z,24.72
2019-03-09T07:07:04.363Z,26.10
2019-03-09T07:08:08.478Z,25.00
2019-03-09T07:09:12.607Z,22.50
2019-03-09T07:10:17.999Z,20.48
2019-03-09T07:11:23.273Z,22.75
2019-03-09T07:12:27.337Z,21.97
2019-03-09T07:13:31.421Z,22.07
2019-03-09T07:14:59.833Z,21.50
2019-03-09T07:16:04.028Z,22.93
2019-03-09T07:17:11.260Z,24.75
2019-03-09T07:18:17.135Z,23.70
2019-03-09T07:19:22.396Z,26.42
2019-03-09T07:20:26.667Z,27.00
2019-03-09T07:21:30.806Z,23.02
2019-03-09T07:22:34.861Z,23.45
2019-03-09T07:23:39.122Z,23.50
2019-03-09T07:24:43.205Z,25.88
2019-03-09T07:25:47.347Z,25.35
2019-03-09T07:26:51.666Z,24.12
2019-03-09T07:28:03.680Z,28.12
2019-03-09T07:29:09.626Z,26.50
2019-03-09T07:30:16.290Z,33.05
2019-03-09T07:31:22.342Z,26.80
2019-03-09T07:32:27.564Z,27.20
2019-03-09T07:33:41.260Z,24.82
2019-03-09T07:34:48.128Z,46.20
2019-03-09T07:35:53.137Z,52.78
2019-03-09T07:36:58.728Z,83.37
2019-03-09T07:38:03.103Z,102.55
2019-03-09T07:39:12.692Z,73.15
2019-03-09T07:40:17.153Z,70.97
2019-03-09T07:41:24.152Z,50.88
2019-03-09T07:42:34.400Z,59.93
2019-03-09T07:43:45.508Z,47.38
2019-03-09T07:44:52.064Z,36.38
2019-03-09T07:45:59.605Z,29.87
2019-03-09T07:47:08.829Z,31.35
2019-03-09T07:48:15.700Z,25.85
2019-03-09T07:49:31.028Z,25.35
2019-03-09T07:50:30.479Z,26.43
2019-03-09T07:51:35.346Z,25.40
2019-03-09T07:52:40.649Z,21.68
2019-03-09T07:53:45.369Z,24.47
2019-03-09T07:54:49.527Z,20.20
2019-03-09T07:55:53.742Z,20.23
2019-03-09T07:56:59.396Z,23.55
2019-03-09T07:58:05.553Z,23.62
2019-03-09T07:59:09.696Z,21.48
2019-03-09T08:00:16.550Z,22.32
2019-03-09T08:01:23.991Z,23.30
2019-03-09T08:02:32.933Z,23.77
2019-03-09T08:03:37.954Z,22.40
2019-03-09T08:04:43.791Z,27.90
2019-03-09T08:05:50.017Z,25.10
2019-03-09T08:06:55.170Z,25.57
2019-03-09T08:08:02.967Z,21.87
2019-03-09T08:09:09.062Z,25.62
2019-03-09T08:10:21.922Z,22.55
2019-03-09T08:11:28.075Z,22.73
2019-03-09T08:12:35.664Z,21.15
2019-03-09T08:13:48.849Z,19.50
2019-03-09T08:14:59.575Z,25.02
2019-03-09T08:16:15.909Z,20.68
2019-03-09T08:17:23.278Z,22.22
2019-03-09T08:18:31.949Z,20.62
2019-03-09T08:19:38.776Z,36.42
2019-03-09T08:20:42.971Z,37.23
2019-03-09T08:21:52.390Z,103.50
2019-03-09T08:22:58.689Z,50.10
2019-03-09T08:24:07.725Z,42.55
2019-03-09T08:25:17.202Z,31.75
2019-03-09T08:26:25.093Z,23.42
2019-03-09T08:27:40.699Z,22.40
2019-03-09T08:28:49.546Z,25.02
2019-03-09T08:29:55.450Z,22.95
2019-03-09T08:31:00.408Z,17.70
2019-03-09T08:32:10.861Z,18.42
2019-03-09T08:33:22.557Z,17.25
2019-03-09T08:34:32.926Z,19.48
2019-03-09T08:35:42.759Z,18.73
2019-03-09T08:36:48.873Z,19.90
2019-03-09T08:37:57.090Z,20.32
2019-03-09T08:39:10.196Z,18.90
2019-03-09T08:40:25.636Z,17.37
2019-03-09T08:41:31.697Z,18.85
2019-03-09T08:42:48.140Z,18.75
2019-03-09T08:43:49.958Z,17.65
2019-03-09T08:44:58.753Z,18.62
2019-03-09T08:46:08.732Z,17.65
2019-03-09T08:47:16.009Z,16.90
2019-03-09T08:48:27.388Z,19.77
2019-03-09T08:49:35.312Z,19.23
2019-03-09T08:50:42.446Z,17.92
2019-03-09T08:51:52.623Z,17.02
2019-03-09T08:53:14.618Z,20.85
2019-03-09T08:54:28.878Z,16.85
2019-03-09T08:55:34.297Z,18.95
2019-03-09T08:56:39.770Z,16.37
2019-03-09T08:57:43.990Z,15.20
2019-03-09T08:58:49.368Z,16.87
2019-03-09T08:59:53.686Z,19.30
2019-03-09T09:01:01.634Z,19.73
2019-03-09T09:02:08.088Z,17.37
2019-03-09T09:03:12.768Z,20.08
2019-03-09T09:04:28.320Z,17.40
2019-03-09T09:05:39.671Z,17.85
2019-03-09T09:06:50.146Z,18.45
2019-03-09T09:09:27.457Z,18.10
2019-03-09T09:15:09.763Z,19.45
2019-03-09T09:17:49.216Z,18.40
2019-03-09T09:18:55.319Z,15.70
2019-03-09T09:20:07.028Z,36.13
2019-03-09T09:21:14.376Z,36.17
2019-03-09T09:22:20.507Z,28.07
2019-03-09T09:23:29.551Z,54.08
2019-03-09T09:24:37.616Z,54.30
2019-03-09T09:25:47.651Z,26.15
2019-03-09T09:26:57.582Z,26.48
2019-03-09T09:28:07.288Z,25.23
2019-03-09T09:29:15.495Z,19.92
2019-03-09T09:30:32.389Z,18.82
2019-03-09T09:33:22.048Z,15.03
2019-03-09T09:34:30.273Z,15.10
2019-03-09T09:35:38.049Z,15.32
2019-03-09T09:36:46.940Z,17.02
2019-03-09T09:37:53.907Z,20.02
2019-03-09T09:39:04.406Z,14.83
2019-03-09T09:40:23.665Z,16.32
2019-03-09T09:41:28.854Z,15.35
2019-03-09T09:42:34.045Z,18.75
2019-03-09T09:43:41.377Z,16.12
2019-03-09T09:44:48.958Z,16.57
2019-03-09T09:45:53.848Z,15.08
2019-03-09T09:46:59.896Z,16.55
2019-03-09T09:48:05.240Z,14.35
2019-03-09T09:49:12.420Z,10.88
2019-03-09T09:50:18.011Z,14.80
2019-03-09T09:51:23.454Z,14.68
2019-03-09T09:52:27.560Z,15.50
2019-03-09T09:53:37.972Z,14.68
2019-03-09T09:55:45.421Z,16.12
2019-03-09T09:56:50.241Z,15.48
2019-03-09T09:58:03.753Z,11.78
2019-03-09T09:59:14.561Z,16.17
2019-03-09T10:00:28.191Z,18.98
2019-03-09T10:01:33.220Z,14.33
2019-03-09T10:02:37.359Z,13.00
2019-03-09T10:03:42.729Z,13.78
2019-03-09T10:04:46.802Z,11.88
2019-03-09T10:05:51.039Z,13.10
2019-03-09T10:06:56.882Z,13.75
2019-03-09T10:08:19.994Z,13.60
2019-03-09T10:09:26.828Z,32.53
2019-03-09T10:10:32.264Z,31.20
2019-03-09T10:11:39.585Z,26.90
2019-03-09T10:12:47.160Z,18.17
2019-03-09T10:13:51.254Z,27.15
2019-03-09T10:14:56.923Z,24.65
2019-03-09T10:16:01.700Z,27.65
2019-03-09T10:17:08.045Z,17.15
2019-03-09T10:18:12.197Z,12.53
2019-03-09T10:19:16.346Z,15.08
2019-03-09T10:20:22.024Z,12.85
2019-03-09T10:21:27.529Z,14.38
2019-03-09T10:22:31.697Z,12.03
2019-03-09T10:23:36.022Z,13.32
2019-03-09T10:24:40.118Z,14.25
2019-03-09T10:25:46.838Z,12.45
2019-03-09T10:26:52.618Z,12.20
2019-03-09T10:27:56.797Z,12.47
2019-03-09T10:29:01.060Z,14.87
2019-03-09T10:30:12.577Z,13.55
2019-03-09T10:31:16.718Z,15.80
2019-03-09T10:32:20.789Z,13.13
2019-03-09T10:33:24.947Z,12.90
2019-03-09T10:34:29.053Z,12.82
2019-03-09T10:35:34.214Z,12.82
2019-03-09T10:36:40.860Z,13.80
2019-03-09T10:37:48.982Z,13.88
2019-03-09T10:38:57.050Z,14.60
2019-03-09T10:40:17.471Z,12.28
2019-03-09T10:41:36.484Z,11.78
2019-03-09T10:42:30.884Z,15.15
2019-03-09T10:43:35.118Z,14.60
2019-03-09T10:44:39.281Z,11.03
2019-03-09T10:45:47.188Z,16.27
2019-03-09T10:46:52.923Z,13.40
2019-03-09T10:48:00.171Z,13.25
2019-03-09T10:49:14.547Z,10.82
2019-03-09T10:52:26.337Z,11.18
2019-03-09T10:54:01.069Z,13.43
2019-03-09T10:54:54.802Z,12.00
2019-03-09T10:56:04.087Z,13.15
2019-03-09T10:57:07.361Z,10.63
2019-03-09T10:58:12.797Z,12.50
2019-03-09T10:59:16.885Z,11.48
2019-03-09T11:00:39.789Z,12.37
2019-03-09T11:01:58.586Z,10.23
2019-03-09T11:03:20.488Z,10.35
2019-03-09T11:04:41.281Z,10.93
2019-03-09T11:07:09.764Z,11.97
2019-03-09T11:08:13.218Z,16.07
2019-03-09T11:09:18.584Z,9.40
2019-03-09T11:10:25.934Z,12.15
2019-03-09T11:11:34.342Z,10.55
2019-03-09T11:12:43.129Z,9.65
2019-03-09T11:13:52.146Z,9.73
2019-03-09T11:15:05.335Z,12.23
2019-03-09T11:16:05.530Z,12.85
2019-03-09T11:17:13.239Z,8.98
2019-03-09T11:18:19.482Z,12.35
2019-03-09T11:19:27.751Z,11.88
2019-03-09T11:20:38.721Z,9.25
2019-03-09T11:22:51.006Z,11.18
2019-03-09T11:24:00.212Z,8.55
2019-03-09T11:25:06.507Z,9.43
2019-03-09T11:26:11.855Z,6.90
2019-03-09T11:27:19.294Z,13.22
2019-03-09T11:28:23.937Z,8.80
2019-03-09T11:29:28.391Z,8.88
2019-03-09T11:30:35.586Z,9.80
2019-03-09T11:31:41.131Z,11.65
2019-03-09T11:32:45.361Z,10.23
2019-03-09T11:33:50.309Z,17.15
2019-03-09T11:34:54.517Z,8.58
2019-03-09T11:36:03.222Z,8.75
2019-03-09T11:37:10.413Z,10.88
2019-03-09T11:38:14.068Z,9.25
2019-03-09T11:39:21.317Z,10.88
2019-03-09T11:40:32.206Z,7.90
2019-03-09T11:41:34.718Z,11.50
2019-03-09T11:42:40.190Z,8.60
2019-03-09T11:43:45.846Z,9.15
2019-03-09T11:44:50.153Z,9.05
2019-03-09T11:45:56.807Z,9.38
2019-03-09T11:47:01.733Z,7.22
2019-03-09T11:48:06.055Z,7.85
2019-03-09T11:49:11.855Z,7.50
2019-03-09T11:50:21.335Z,10.43
2019-03-09T11:51:25.418Z,11.47
2019-03-09T11:52:39.697Z,12.82
2019-03-09T11:53:43.885Z,9.13
2019-03-09T11:54:48.101Z,8.08
2019-03-09T11:55:52.313Z,13.13
2019-03-09T11:56:56.446Z,8.68
2019-03-09T11:58:00.632Z,11.12
2019-03-09T11:59:04.781Z,10.15
2019-03-09T12:00:29.673Z,10.48
2019-03-09T12:01:33.873Z,8.48
2019-03-09T12:02:39.166Z,8.48
2019-03-09T12:03:43.610Z,10.30
2019-03-09T12:04:50.930Z,9.93
2019-03-09T12:05:56.957Z,9.93
2019-03-09T12:07:02.322Z,7.83
2019-03-09T12:08:09.023Z,7.60
2019-03-09T12:09:13.297Z,11.03
2019-03-09T12:10:20.505Z,7.10
2019-03-09T12:11:26.343Z,11.08
2019-03-09T12:12:30.490Z,8.25
2019-03-09T12:13:34.654Z,9.18
2019-03-09T12:14:38.764Z,10.45
2019-03-09T12:15:46.388Z,8.95
2019-03-09T12:16:52.574Z,9.48
2019-03-09T12:17:56.780Z,13.13
2019-03-09T12:19:01.136Z,12.50
2019-03-09T12:20:07.915Z,9.00
2019-03-09T12:21:12.025Z,8.25
2019-03-09T12:22:18.071Z,9.70
2019-03-09T12:23:23.745Z,9.23
2019-03-09T12:24:29.553Z,8.43
2019-03-09T12:25:33.690Z,10.78
2019-03-09T12:26:40.254Z,9.68
2019-03-09T12:27:43.782Z,6.22
2019-03-09T12:28:50.070Z,9.78
2019-03-09T12:29:57.027Z,8.93
2019-03-09T12:31:02.881Z,9.05
2019-03-09T12:32:07.195Z,10.25
2019-03-09T12:33:14.985Z,8.78
2019-03-09T12:34:20.793Z,6.35
2019-03-09T12:35:26.482Z,12.73
2019-03-09T12:36:30.659Z,8.18
2019-03-09T12:37:34.951Z,8.60
2019-03-09T12:38:39.100Z,9.73
2019-03-09T12:39:43.393Z,10.18
2019-03-09T12:40:48.508Z,7.62
2019-03-09T12:42:03.367Z,10.25
2019-03-09T12:43:09.517Z,9.13
2019-03-09T12:44:15.320Z,13.03
2019-03-09T12:45:19.502Z,12.78
2019-03-09T12:46:27.127Z,8.05
2019-03-09T12:47:31.477Z,7.12
2019-03-09T12:48:35.893Z,10.18
2019-03-09T12:49:40.048Z,10.30
2019-03-09T12:50:47.369Z,8.33
2019-03-09T12:51:52.073Z,9.35
2019-03-09T12:53:08.485Z,7.28
2019-03-09T12:54:16.336Z,14.55
2019-03-09T12:55:26.189Z,10.10
2019-03-09T12:56:32.365Z,8.18
2019-03-09T12:57:38.885Z,9.05
2019-03-09T12:58:43.310Z,9.73
2019-03-09T12:59:53.389Z,9.38
2019-03-09T13:01:01.784Z,8.80
2019-03-09T13:02:10.887Z,11.78
2019-03-09T13:03:17.055Z,9.88
2019-03-09T13:04:25.565Z,10.00
2019-03-09T13:05:32.670Z,12.25
2019-03-09T13:06:42.659Z,9.58
2019-03-09T13:07:48.326Z,9.10
2019-03-09T13:09:00.165Z,11.03
2019-03-09T13:10:06.611Z,9.25
2019-03-09T13:11:17.390Z,8.38
2019-03-09T13:12:21.840Z,9.55
2019-03-09T13:13:26.685Z,9.03
2019-03-09T13:14:32.435Z,8.50
2019-03-09T13:15:37.772Z,9.30
2019-03-09T13:16:47.472Z,10.93
2019-03-09T13:17:58.148Z,9.68
2019-03-09T13:19:03.047Z,11.90
2019-03-09T13:20:17.131Z,9.43
2019-03-09T13:21:22.846Z,10.35
2019-03-09T13:22:28.622Z,10.88
2019-03-09T13:23:41.271Z,9.53
2019-03-09T13:24:46.981Z,10.28
2019-03-09T13:25:51.403Z,6.47
2019-03-09T13:26:58.111Z,7.60
2019-03-09T13:28:05.133Z,7.65
2019-03-09T13:29:11.277Z,4.60
2019-03-09T13:30:22.571Z,5.45
2019-03-09T13:31:32.048Z,4.70
2019-03-09T13:32:39.185Z,4.00
2019-03-09T13:33:43.644Z,3.90
2019-03-09T13:34:49.558Z,5.45
2019-03-09T13:35:56.821Z,4.33
2019-03-09T13:37:02.449Z,7.67
2019-03-09T13:38:06.741Z,3.87
2019-03-09T13:39:12.532Z,5.00
2019-03-09T13:40:18.322Z,4.55
2019-03-09T13:41:26.425Z,4.17
2019-03-09T13:42:30.731Z,4.85
2019-03-09T13:43:41.429Z,5.50
2019-03-09T13:44:46.910Z,5.28
2019-03-09T13:45:53.349Z,4.42
2019-03-09T13:46:57.438Z,4.58
2019-03-09T13:48:01.672Z,5.00
2019-03-09T13:49:09.019Z,4.42
2019-03-09T13:50:15.502Z,5.15
2019-03-09T13:51:27.561Z,4.30
2019-03-09T13:52:44.173Z,5.83
2019-03-09T13:53:52.493Z,4.92
2019-03-09T13:55:00.393Z,4.35
2019-03-09T13:56:11.632Z,6.35
2019-03-09T13:57:28.928Z,5.58
2019-03-09T13:58:33.123Z,5.20
2019-03-09T13:59:39.646Z,4.72
2019-03-09T14:00:43.916Z,6.20
2019-03-09T14:01:49.326Z,5.45
2019-03-09T14:02:55.144Z,5.08
2019-03-09T14:04:00.571Z,5.40
2019-03-09T14:05:07.026Z,6.05
2019-03-09T14:06:13.614Z,5.95
2019-03-09T14:07:18.155Z,6.33
2019-03-09T14:08:26.765Z,5.35
2019-03-09T14:09:31.337Z,6.92
2019-03-09T14:10:37.536Z,8.58
2019-03-09T14:13:17.039Z,9.00
2019-03-09T14:15:42.752Z,6.90
2019-03-09T14:16:47.774Z,8.63
2019-03-09T14:17:54.000Z,7.83
2019-03-09T14:18:58.183Z,8.70
2019-03-09T14:20:22.987Z,8.18
2019-03-09T14:21:42.502Z,6.75
2019-03-09T14:22:35.728Z,7.75
2019-03-09T14:23:49.268Z,6.65
2019-03-09T14:25:00.309Z,7.45
2019-03-09T14:26:08.528Z,8.60
2019-03-09T14:27:17.752Z,8.00
2019-03-09T14:28:23.389Z,9.48
2019-03-09T14:29:30.958Z,9.25
2019-03-09T14:30:44.364Z,7.95
2019-03-09T14:31:43.919Z,8.33
2019-03-09T14:32:54.997Z,7.85
2019-03-09T14:34:01.988Z,9.35